createdAt,value
2019-02-24T00:00:48.616Z,1.63
2019-02-24T00:03:17.727Z,1.54
2019-02-24T00:05:47.095Z,1.56
2019-02-24T00:08:16.214Z,1.72
2019-02-24T00:10:45.319Z,1.62
2019-02-24T00:13:13.959Z,1.55
2019-02-24T00:15:42.824Z,1.65
2019-02-24T00:18:11.695Z,1.53
2019-02-24T00:20:40.624Z,1.42
2019-02-24T00:23:09.946Z,1.37
2019-02-24T00:25:38.845Z,1.43
2019-02-24T00:28:07.750Z,1.36
2019-02-24T00:30:36.871Z,1.55
2019-02-24T00:33:05.730Z,1.60
2019-02-24T00:35:35.125Z,1.55
2019-02-24T00:38:03.756Z,1.59
2019-02-24T00:40:32.627Z,1.60
2019-02-24T00:43:01.494Z,1.60
2019-02-24T00:45:30.383Z,1.63
2019-02-24T00:47:59.203Z,1.50
2019-02-24T00:50:27.824Z,1.55
2019-02-24T00:52:56.444Z,1.51
2019-02-24T00:55:25.305Z,1.56
2019-02-24T00:57:54.216Z,1.58
2019-02-24T01:00:22.820Z,1.57
2019-02-24T01:02:51.931Z,1.55
2019-02-24T01:05:20.561Z,1.41
2019-02-24T01:07:49.422Z,1.40
2019-02-24T01:10:18.292Z,1.44
2019-02-24T01:12:46.917Z,1.54
2019-02-24T01:15:15.780Z,1.62
2019-02-24T01:17:44.633Z,1.59
2019-02-24T01:20:13.324Z,1.36
2019-02-24T01:22:42.290Z,1.26
2019-02-24T01:25:11.164Z,1.20
2019-02-24T01:27:40.121Z,1.12
2019-02-24T01:30:09.445Z,1.14
2019-02-24T01:32:38.061Z,1.14
2019-02-24T01:35:07.460Z,1.10
2019-02-24T01:37:36.355Z,1.08
2019-02-24T01:40:05.492Z,1.01
2019-02-24T01:42:34.116Z,1.14
2019-02-24T01:45:02.744Z,1.28
2019-02-24T01:47:31.641Z,1.15
2019-02-24T01:50:00.295Z,1.27
2019-02-24T01:52:29.397Z,1.18
2019-02-24T01:54:58.272Z,1.09
2019-02-24T01:57:27.672Z,1.07
2019-02-24T01:59:56.572Z,0.99
2019-02-24T02:02:25.177Z,1.05
2019-02-24T02:04:54.067Z,0.98
2019-02-24T02:07:23.181Z,1.03
2019-02-24T02:09:52.047Z,0.96
2019-02-24T02:12:20.747Z,0.95
2019-02-24T02:14:49.980Z,0.86
2019-02-24T02:17:19.100Z,0.85
2019-02-24T02:19:47.744Z,0.84
2019-02-24T02:22:16.649Z,0.80
2019-02-24T02:24:45.533Z,0.79
2019-02-24T02:27:14.903Z,0.77
2019-02-24T02:29:44.010Z,0.84
2019-02-24T02:32:12.707Z,0.72
2019-02-24T02:34:41.343Z,0.79
2019-02-24T02:37:10.275Z,0.71
2019-02-24T02:39:39.145Z,0.69
2019-02-24T02:42:08.057Z,0.61
2019-02-24T02:44:36.898Z,0.51
2019-02-24T02:47:05.534Z,0.47
2019-02-24T02:49:34.376Z,0.45
2019-02-24T02:52:03.511Z,0.55
2019-02-24T02:54:32.404Z,0.52
2019-02-24T02:57:01.774Z,0.63
2019-02-24T02:59:30.650Z,0.72
2019-02-24T03:02:00.325Z,0.56
2019-02-24T03:04:28.925Z,0.38
2019-02-24T03:07:19.858Z,0.28
2019-02-24T03:09:49.237Z,0.23
2019-02-24T03:12:18.095Z,0.19
2019-02-24T03:14:46.760Z,0.22
2019-02-24T03:17:15.655Z,0.15
2019-02-24T03:19:44.756Z,0.14
2019-02-24T03:22:13.637Z,0.12
2019-02-24T03:24:42.279Z,0.05
2019-02-24T03:27:11.167Z,0.02
2019-02-24T03:29:40.044Z,0.04
2019-02-24T03:32:08.910Z,0.07
2019-02-24T03:34:37.791Z,0.02
2019-02-24T03:37:06.679Z,0.06
2019-02-24T03:39:35.284Z,0.14
2019-02-24T03:42:04.524Z,0.13
2019-02-24T03:44:33.416Z,0.16
2019-02-24T03:47:02.025Z,0.21
2019-02-24T03:49:30.974Z,0.29
2019-02-24T03:51:59.950Z,0.39
2019-02-24T03:54:28.640Z,0.38
2019-02-24T03:56:57.262Z,0.40
2019-02-24T03:59:25.909Z,0.41
2019-02-24T04:01:54.793Z,0.40
2019-02-24T04:04:23.650Z,0.39
2019-02-24T04:06:52.527Z,0.32
2019-02-24T04:09:21.380Z,0.36
2019-02-24T04:11:50.733Z,0.26
2019-02-24T04:14:19.648Z,0.25
2019-02-24T04:16:48.774Z,0.20
2019-02-24T04:19:17.650Z,0.21
2019-02-24T04:21:46.524Z,0.22
2019-02-24T04:24:15.627Z,0.12
2019-02-24T04:26:44.799Z,0.09
2019-02-24T04:29:13.907Z,0.14
2019-02-24T04:31:42.759Z,0.10
2019-02-24T04:34:11.397Z,0.12
2019-02-24T04:36:40.010Z,0.13
2019-02-24T04:39:08.911Z,0.15
2019-02-24T04:41:38.351Z,0.12
2019-02-24T04:44:07.229Z,0.14
2019-02-24T04:46:36.135Z,0.07
2019-02-24T04:49:05.262Z,0.04
2019-02-24T04:51:34.383Z,0.00
2019-02-24T04:54:03.272Z,-0.09
2019-02-24T04:56:32.177Z,-0.13
2019-02-24T04:59:01.584Z,-0.16
2019-02-24T05:01:30.541Z,-0.17
2019-02-24T05:03:59.202Z,-0.18
2019-02-24T05:06:27.837Z,-0.17
2019-02-24T05:08:57.007Z,-0.18
2019-02-24T05:11:25.921Z,-0.20
2019-02-24T05:13:54.592Z,-0.19
2019-02-24T05:16:23.487Z,-0.13
2019-02-24T05:18:52.124Z,-0.01
2019-02-24T05:21:20.986Z,-0.03
2019-02-24T05:23:49.628Z,-0.05
2019-02-24T05:26:18.265Z,0.00
2019-02-24T05:28:46.907Z,0.08
2019-02-24T05:31:15.867Z,0.13
2019-02-24T05:33:44.820Z,0.13
2019-02-24T05:36:13.477Z,0.26
2019-02-24T05:38:42.608Z,0.25
2019-02-24T05:41:11.730Z,0.34
2019-02-24T05:43:40.381Z,0.36
2019-02-24T05:46:09.214Z,0.35
2019-02-24T05:48:37.884Z,0.33
2019-02-24T05:51:06.755Z,0.29
2019-02-24T05:53:35.596Z,0.46
2019-02-24T05:56:04.483Z,0.49
2019-02-24T05:58:33.107Z,0.50
2019-02-24T06:01:02.483Z,0.53
2019-02-24T06:03:31.143Z,0.48
2019-02-24T06:06:00.249Z,0.46
2019-02-24T06:08:29.110Z,0.47
2019-02-24T06:10:58.496Z,0.37
2019-02-24T06:13:27.141Z,0.38
2019-02-24T06:15:56.273Z,0.35
2019-02-24T06:18:25.409Z,0.31
2019-02-24T06:20:54.312Z,0.26
2019-02-24T06:23:22.972Z,0.29
2019-02-24T06:25:51.861Z,0.32
2019-02-24T06:28:20.942Z,0.35
2019-02-24T06:30:50.083Z,0.30
2019-02-24T06:33:18.944Z,0.27
2019-02-24T06:35:48.101Z,0.30
2019-02-24T06:38:16.757Z,0.36
2019-02-24T06:40:45.835Z,0.40
2019-02-24T06:43:14.690Z,0.40
2019-02-24T06:45:43.698Z,0.47
2019-02-24T06:48:12.573Z,0.56
2019-02-24T06:50:54.385Z,0.62
2019-02-24T06:53:23.285Z,0.72
2019-02-24T06:55:52.008Z,0.78
2019-02-24T06:58:21.137Z,0.77
2019-02-24T07:00:50.253Z,0.81
2019-02-24T07:03:19.374Z,0.88
2019-02-24T07:05:48.249Z,0.87
2019-02-24T07:08:17.162Z,0.82
2019-02-24T07:10:46.294Z,0.79
2019-02-24T07:13:15.706Z,0.74
2019-02-24T07:15:44.613Z,0.90
2019-02-24T07:18:13.307Z,0.79
2019-02-24T07:20:42.234Z,0.87
2019-02-24T07:23:11.631Z,0.85
2019-02-24T07:25:40.485Z,0.92
2019-02-24T07:28:09.136Z,1.05
2019-02-24T07:30:38.070Z,1.03
2019-02-24T07:33:06.923Z,1.11
2019-02-24T07:35:35.617Z,1.16
2019-02-24T07:38:04.724Z,1.26
2019-02-24T07:40:33.327Z,1.31
2019-02-24T07:43:02.487Z,1.27
2019-02-24T07:45:31.391Z,1.51
2019-02-24T07:48:00.500Z,1.65
2019-02-24T07:50:29.468Z,1.73
2019-02-24T07:52:58.097Z,1.79
2019-02-24T07:55:26.725Z,1.88
2019-02-24T07:57:55.627Z,2.02
2019-02-24T08:00:32.045Z,2.13
2019-02-24T08:02:54.879Z,2.17
2019-02-24T08:05:23.868Z,2.38
2019-02-24T08:07:52.529Z,2.81
2019-02-24T08:10:21.404Z,3.11
2019-02-24T08:12:50.534Z,3.40
2019-02-24T08:15:19.270Z,3.81
2019-02-24T08:17:48.152Z,4.23
2019-02-24T08:20:17.274Z,4.59
2019-02-24T08:22:46.388Z,5.34
2019-02-24T08:25:15.273Z,5.34
2019-02-24T08:27:43.949Z,5.68
2019-02-24T08:30:12.661Z,5.56
2019-02-24T08:32:41.857Z,5.27
2019-02-24T08:35:10.597Z,5.89
2019-02-24T08:37:39.711Z,6.12
2019-02-24T08:40:08.927Z,7.90
2019-02-24T08:42:37.862Z,7.90
2019-02-24T08:45:07.527Z,8.63
2019-02-24T08:47:36.160Z,8.69
2019-02-24T08:50:05.775Z,9.64
2019-02-24T08:52:34.415Z,9.03
2019-02-24T08:55:03.038Z,9.55
2019-02-24T08:57:32.271Z,7.72
2019-02-24T09:00:01.260Z,8.50
2019-02-24T09:02:30.126Z,8.85
2019-02-24T09:04:59.012Z,9.26
2019-02-24T09:07:27.649Z,8.60
2019-02-24T09:09:56.282Z,9.03
2019-02-24T09:12:24.953Z,9.28
2019-02-24T09:14:53.837Z,9.98
2019-02-24T09:17:23.312Z,10.36
2019-02-24T09:19:51.977Z,9.73
2019-02-24T09:22:20.616Z,10.98
2019-02-24T09:24:49.252Z,11.06
2019-02-24T09:27:18.476Z,11.76
2019-02-24T09:29:47.356Z,12.35
2019-02-24T09:32:16.304Z,12.41
2019-02-24T09:34:44.953Z,11.78
2019-02-24T09:37:14.107Z,11.50
2019-02-24T09:39:42.761Z,12.02
2019-02-24T09:42:14.205Z,13.24
2019-02-24T09:44:43.099Z,13.92
2019-02-24T09:47:12.319Z,12.64
2019-02-24T09:49:41.445Z,12.70
2019-02-24T09:52:10.340Z,12.19
2019-02-24T09:54:39.276Z,11.97
2019-02-24T09:57:08.232Z,12.52
2019-02-24T09:59:37.566Z,12.95
2019-02-24T10:02:06.598Z,13.68
2019-02-24T10:04:35.478Z,14.44
2019-02-24T10:07:04.665Z,12.73
2019-02-24T10:09:33.543Z,12.83
2019-02-24T10:12:02.189Z,14.41
2019-02-24T10:14:31.096Z,12.32
2019-02-24T10:16:59.979Z,13.30
2019-02-24T10:19:31.177Z,12.82
2019-02-24T10:21:59.709Z,13.54
2019-02-24T10:24:28.573Z,12.48
2019-02-24T10:26:57.443Z,12.79
2019-02-24T10:29:26.340Z,12.74
2019-02-24T10:31:55.199Z,13.60
2019-02-24T10:34:23.840Z,13.83
2019-02-24T10:36:52.813Z,14.49
2019-02-24T10:39:29.532Z,14.78
2019-02-24T10:41:53.736Z,14.36
2019-02-24T10:44:22.640Z,14.37
2019-02-24T10:46:51.775Z,14.83
2019-02-24T10:49:20.666Z,14.96
2019-02-24T10:51:49.295Z,14.38
2019-02-24T10:54:18.155Z,15.54
2019-02-24T10:56:47.104Z,15.09
2019-02-24T10:59:16.988Z,14.85
2019-02-24T11:01:45.755Z,14.12
2019-02-24T11:04:15.412Z,13.78
2019-02-24T11:06:44.649Z,14.72
2019-02-24T11:09:13.856Z,14.50
2019-02-24T11:11:43.107Z,14.74
2019-02-24T11:14:12.059Z,14.29
2019-02-24T11:16:40.924Z,14.80
2019-02-24T11:19:09.803Z,14.50
2019-02-24T11:21:38.449Z,14.47
2019-02-24T11:24:07.093Z,14.00
2019-02-24T11:26:36.029Z,14.80
2019-02-24T11:29:04.743Z,15.44
2019-02-24T11:31:38.396Z,15.96
2019-02-24T11:34:03.774Z,14.63
2019-02-24T11:36:32.514Z,14.66
2019-02-24T11:39:01.388Z,14.68
2019-02-24T11:41:30.763Z,14.70
2019-02-24T11:43:59.506Z,15.08
2019-02-24T11:46:28.400Z,15.12
2019-02-24T11:48:57.299Z,15.44
2019-02-24T11:51:25.954Z,15.89
2019-02-24T11:53:54.929Z,15.80
2019-02-24T11:56:23.818Z,15.92
2019-02-24T11:58:52.842Z,15.45
2019-02-24T12:01:21.938Z,15.38
2019-02-24T12:03:50.842Z,15.54
2019-02-24T12:06:19.746Z,15.56
2019-02-24T12:08:48.605Z,16.11
2019-02-24T12:11:18.045Z,15.89
2019-02-24T12:13:47.176Z,16.21
2019-02-24T12:16:16.051Z,16.15
2019-02-24T12:18:44.960Z,16.60
2019-02-24T12:21:14.128Z,15.89
2019-02-24T12:23:43.240Z,15.96
2019-02-24T12:26:12.384Z,16.36
2019-02-24T12:28:41.517Z,15.54
2019-02-24T12:31:10.664Z,16.13
2019-02-24T12:33:39.415Z,16.07
2019-02-24T12:36:08.046Z,16.42
2019-02-24T12:38:37.244Z,16.45
2019-02-24T12:41:06.227Z,15.51
2019-02-24T12:43:35.095Z,16.47
2019-02-24T12:46:04.021Z,16.64
2019-02-24T12:48:32.663Z,15.69
2019-02-24T12:51:01.270Z,15.95
2019-02-24T12:53:30.139Z,16.17
2019-02-24T12:55:59.365Z,16.05
2019-02-24T12:58:28.575Z,16.27
2019-02-24T13:00:57.548Z,16.34
2019-02-24T13:03:26.179Z,16.22
2019-02-24T13:05:55.054Z,16.09
2019-02-24T13:08:23.951Z,15.94
2019-02-24T13:10:52.592Z,15.93
2019-02-24T13:13:21.461Z,16.17
2019-02-24T13:15:50.575Z,15.73
2019-02-24T13:18:19.226Z,16.25
2019-02-24T13:20:48.102Z,16.52
2019-02-24T13:23:16.993Z,15.70
2019-02-24T13:25:45.875Z,16.60
2019-02-24T13:28:14.732Z,16.80
2019-02-24T13:30:43.622Z,16.75
2019-02-24T13:33:12.587Z,16.51
2019-02-24T13:35:41.216Z,16.30
2019-02-24T13:38:10.363Z,17.13
2019-02-24T13:40:39.216Z,16.19
2019-02-24T13:43:08.334Z,16.49
2019-02-24T13:45:37.218Z,16.10
2019-02-24T13:48:05.837Z,16.45
2019-02-24T13:50:34.699Z,16.51
2019-02-24T13:53:03.865Z,17.27
2019-02-24T13:55:32.502Z,16.65
2019-02-24T13:58:01.675Z,16.43
2019-02-24T14:00:30.627Z,17.16
2019-02-24T14:02:59.568Z,16.69
2019-02-24T14:05:28.769Z,17.23
2019-02-24T14:07:57.408Z,16.55
2019-02-24T14:10:26.038Z,16.25
2019-02-24T14:12:54.935Z,15.71
2019-02-24T14:15:23.662Z,16.35
2019-02-24T14:17:52.300Z,16.18
2019-02-24T14:20:20.961Z,16.57
2019-02-24T14:22:50.305Z,16.89
2019-02-24T14:25:19.243Z,16.15
2019-02-24T14:27:47.992Z,16.69
2019-02-24T14:30:16.703Z,16.79
2019-02-24T14:32:45.652Z,17.06
2019-02-24T14:35:14.869Z,17.65
2019-02-24T14:37:43.498Z,16.92
2019-02-24T14:40:12.435Z,16.98
2019-02-24T14:42:41.075Z,17.10
2019-02-24T14:45:12.300Z,16.78
2019-02-24T14:47:41.263Z,16.58
2019-02-24T14:50:10.176Z,17.07
2019-02-24T14:52:38.832Z,17.26
2019-02-24T14:55:08.281Z,16.78
2019-02-24T14:57:36.863Z,16.03
2019-02-24T15:00:06.451Z,16.11
2019-02-24T15:02:42.133Z,16.07
2019-02-24T15:05:06.729Z,15.92
2019-02-24T15:07:35.612Z,15.75
2019-02-24T15:10:04.909Z,15.93
2019-02-24T15:12:33.808Z,15.85
2019-02-24T15:15:02.455Z,15.44
2019-02-24T15:17:31.347Z,15.51
2019-02-24T15:20:00.452Z,15.45
2019-02-24T15:22:29.602Z,15.51
2019-02-24T15:24:58.749Z,15.36
2019-02-24T15:27:27.631Z,15.21
2019-02-24T15:29:56.796Z,15.17
2019-02-24T15:32:25.711Z,15.29
2019-02-24T15:34:55.104Z,15.24
2019-02-24T15:37:23.739Z,15.16
2019-02-24T15:39:52.887Z,16.02
2019-02-24T15:42:21.775Z,15.88
2019-02-24T15:44:50.672Z,16.05
2019-02-24T15:47:19.552Z,15.66
2019-02-24T15:49:48.182Z,15.96
2019-02-24T15:52:17.332Z,15.79
2019-02-24T15:54:46.245Z,15.06
2019-02-24T15:57:14.879Z,14.93
2019-02-24T15:59:47.833Z,15.31
2019-02-24T16:02:17.112Z,15.31
2019-02-24T16:04:45.757Z,15.39
2019-02-24T16:07:14.616Z,14.76
2019-02-24T16:09:43.494Z,14.83
2019-02-24T16:12:12.463Z,14.35
2019-02-24T16:14:41.124Z,14.10
2019-02-24T16:17:10.039Z,13.94
2019-02-24T16:19:38.981Z,13.80
2019-02-24T16:22:07.690Z,13.69
2019-02-24T16:24:36.603Z,13.22
2019-02-24T16:27:05.320Z,12.80
2019-02-24T16:29:33.988Z,12.49
2019-02-24T16:32:02.620Z,12.23
2019-02-24T16:34:31.234Z,11.96
2019-02-24T16:37:00.386Z,11.65
2019-02-24T16:39:29.283Z,11.76
2019-02-24T16:41:58.159Z,11.74
2019-02-24T16:44:27.613Z,11.49
2019-02-24T16:46:56.582Z,11.40
2019-02-24T16:49:25.964Z,11.26
2019-02-24T16:51:55.079Z,11.15
2019-02-24T16:54:24.621Z,10.89
2019-02-24T16:56:53.684Z,10.90
2019-02-24T16:59:22.792Z,10.98
2019-02-24T17:01:51.701Z,10.75
2019-02-24T17:04:20.571Z,10.71
2019-02-24T17:06:49.423Z,10.55
2019-02-24T17:09:18.579Z,10.55
2019-02-24T17:11:47.460Z,10.47
2019-02-24T17:14:16.584Z,10.61
2019-02-24T17:16:45.477Z,10.65
2019-02-24T17:19:14.331Z,10.55
2019-02-24T17:21:43.472Z,10.39
2019-02-24T17:24:12.622Z,10.19
2019-02-24T17:26:41.244Z,10.06
2019-02-24T17:29:10.109Z,9.85
2019-02-24T17:31:39.015Z,9.72
2019-02-24T17:34:07.616Z,9.72
2019-02-24T17:36:36.219Z,9.78
2019-02-24T17:39:06.653Z,9.57
2019-02-24T17:41:35.561Z,9.44
2019-02-24T17:44:04.769Z,9.51
2019-02-24T17:46:33.645Z,9.34
2019-02-24T17:49:02.263Z,9.22
2019-02-24T17:51:31.150Z,9.07
2019-02-24T17:54:00.045Z,8.97
2019-02-24T17:56:28.907Z,9.07
2019-02-24T17:59:05.937Z,9.04
2019-02-24T18:01:34.877Z,9.03
2019-02-24T18:04:04.714Z,8.92
2019-02-24T18:06:33.594Z,8.79
2019-02-24T18:09:02.475Z,8.71
2019-02-24T18:11:31.369Z,8.72
2019-02-24T18:14:00.283Z,8.60
2019-02-24T18:16:29.165Z,8.60
2019-02-24T18:18:58.394Z,8.47
2019-02-24T18:21:27.272Z,8.50
2019-02-24T18:23:56.189Z,8.50
2019-02-24T18:26:25.064Z,8.39
2019-02-24T18:28:53.948Z,8.44
2019-02-24T18:31:22.565Z,8.57
2019-02-24T18:33:51.232Z,8.67
2019-02-24T18:36:20.091Z,8.70
2019-02-24T18:38:48.685Z,8.56
2019-02-24T18:41:17.543Z,8.62
2019-02-24T18:43:46.214Z,8.67
2019-02-24T18:46:15.122Z,8.63
2019-02-24T18:48:43.755Z,8.55
2019-02-24T18:51:12.878Z,8.45
2019-02-24T18:53:42.064Z,8.33
2019-02-24T18:56:10.981Z,8.26
2019-02-24T18:58:39.870Z,8.43
2019-02-24T19:01:08.596Z,8.49
2019-02-24T19:03:37.473Z,8.54
2019-02-24T19:06:06.427Z,8.49
2019-02-24T19:08:35.426Z,8.27
2019-02-24T19:11:04.137Z,8.06
2019-02-24T19:13:32.982Z,8.08
2019-02-24T19:16:02.184Z,7.94
2019-02-24T19:18:31.296Z,7.89
2019-02-24T19:21:00.394Z,8.03
2019-02-24T19:23:29.320Z,8.02
2019-02-24T19:25:58.037Z,7.95
2019-02-24T19:28:26.701Z,7.80
2019-02-24T19:30:55.614Z,7.80
2019-02-24T19:33:24.729Z,7.48
2019-02-24T19:35:53.619Z,7.48
2019-02-24T19:38:22.991Z,7.43
2019-02-24T19:40:51.700Z,7.56
2019-02-24T19:43:20.428Z,7.61
2019-02-24T19:45:49.296Z,7.30
2019-02-24T19:48:18.035Z,7.30
2019-02-24T19:50:46.969Z,7.21
2019-02-24T19:53:16.127Z,7.13
2019-02-24T19:55:45.000Z,7.11
2019-02-24T19:58:13.862Z,7.19
2019-02-24T20:00:42.774Z,7.11
2019-02-24T20:03:11.814Z,7.02
2019-02-24T20:05:40.910Z,7.07
2019-02-24T20:08:09.841Z,7.09
2019-02-24T20:10:38.926Z,7.05
2019-02-24T20:13:07.792Z,7.07
2019-02-24T20:15:37.079Z,7.10
2019-02-24T20:18:06.206Z,7.17
2019-02-24T20:20:35.107Z,7.19
2019-02-24T20:23:04.086Z,7.19
2019-02-24T20:25:32.970Z,7.35
2019-02-24T20:28:02.341Z,7.52
2019-02-24T20:30:31.004Z,7.51
2019-02-24T20:32:59.608Z,7.51
2019-02-24T20:35:28.559Z,7.48
2019-02-24T20:37:57.538Z,7.58
2019-02-24T20:40:26.248Z,7.48
2019-02-24T20:42:55.361Z,7.37
2019-02-24T20:45:24.258Z,7.39
2019-02-24T20:47:53.092Z,7.02
2019-02-24T20:50:22.152Z,7.02
2019-02-24T20:52:50.784Z,6.91
2019-02-24T20:55:20.096Z,6.91
2019-02-24T20:57:48.714Z,6.89
2019-02-24T21:00:26.098Z,6.89
2019-02-24T21:02:55.209Z,7.01
2019-02-24T21:05:23.851Z,7.02
2019-02-24T21:07:52.758Z,6.92
2019-02-24T21:10:21.536Z,6.74
2019-02-24T21:12:50.665Z,6.81
2019-02-24T21:15:19.406Z,6.63
2019-02-24T21:17:48.035Z,6.45
2019-02-24T21:20:18.692Z,6.50
2019-02-24T21:22:47.402Z,6.55
2019-02-24T21:25:16.499Z,6.46
2019-02-24T21:27:45.619Z,6.46
2019-02-24T21:30:15.640Z,6.56
2019-02-24T21:32:45.640Z,6.70
2019-02-24T21:35:14.755Z,6.88
2019-02-24T21:37:44.638Z,6.86
2019-02-24T21:40:13.897Z,6.64
2019-02-24T21:42:42.571Z,6.72
2019-02-24T21:45:13.602Z,6.74
2019-02-24T21:47:42.922Z,6.68
2019-02-24T21:50:12.665Z,6.49
2019-02-24T21:52:41.624Z,6.58
2019-02-24T21:55:10.767Z,6.36
2019-02-24T21:57:39.999Z,6.29
2019-02-24T22:00:12.172Z,6.07
2019-02-24T22:02:41.122Z,5.99
2019-02-24T22:05:10.140Z,6.06
2019-02-24T22:07:39.166Z,6.13
2019-02-24T22:10:08.991Z,6.24
2019-02-24T22:12:37.939Z,6.33
2019-02-24T22:15:08.586Z,6.25
2019-02-24T22:17:37.736Z,6.15
2019-02-24T22:20:07.149Z,5.97
2019-02-24T22:22:35.797Z,5.94
2019-02-24T22:25:04.905Z,5.98
2019-02-24T22:27:34.060Z,6.02
2019-02-24T22:30:02.916Z,5.97
2019-02-24T22:32:34.342Z,5.87
2019-02-24T22:35:02.996Z,5.78
2019-02-24T22:37:32.403Z,5.68
2019-02-24T22:40:01.524Z,5.68
2019-02-24T22:42:30.435Z,5.81
2019-02-24T22:44:59.571Z,5.85
2019-02-24T22:47:28.435Z,5.90
2019-02-24T22:49:57.341Z,5.68
2019-02-24T22:52:26.201Z,5.66
2019-02-24T22:54:54.904Z,5.85
2019-02-24T22:57:23.577Z,6.22
2019-02-24T22:59:52.833Z,5.87
2019-02-24T23:02:22.790Z,5.87
2019-02-24T23:04:51.964Z,5.80
2019-02-24T23:07:20.899Z,5.66
2019-02-24T23:09:49.802Z,5.73
2019-02-24T23:12:18.759Z,5.73
2019-02-24T23:14:47.886Z,5.50
2019-02-24T23:17:16.548Z,5.58
2019-02-24T23:19:45.199Z,5.32
2019-02-24T23:22:14.050Z,5.32
2019-02-24T23:24:42.927Z,5.29
2019-02-24T23:27:11.558Z,5.25
2019-02-24T23:29:40.190Z,5.42
2019-02-24T23:32:08.848Z,5.42
2019-02-24T23:34:37.786Z,5.53
2019-02-24T23:37:06.664Z,5.45
2019-02-24T23:39:35.756Z,5.32
2019-02-24T23:42:04.658Z,5.32
2019-02-24T23:44:34.018Z,5.85
2019-02-24T23:47:03.144Z,5.85
2019-02-24T23:49:32.459Z,5.67
2019-02-24T23:52:01.339Z,5.37
2019-02-24T23:54:30.463Z,5.37
2019-02-24T23:56:59.103Z,5.31
2019-02-24T23:59:27.839Z,5.69
